Pojoaque, New Mexico
Current Conditions -  °F | °C
As of 10:53 PM on Sunday 21 Dec 2014 (Local Time) from KSAF Reporting Station
Clear Clear  
Wind Chill: 31°   Ceiling: Unl
Heat Index: 37°   Visibility: 10mi
Dew Point: 28°   Wind: 8mph
Humidity: 70%   Direction: 300°WNW
Pressure: 29.85"   Gusts: NA
Location:  35.7017°N, 105.921°W
Report Text: KSAF 220553Z AUTO 30007KT 250V340 10SM CLR 03/M02 A2985 RMK AO2 SLP083 T00281022 10044 21006 58009
Loading
Personal Weather Stations






























Interactive Weather Map New forecast layout! Learn more

10-Day Weather Forecast

Advertisements
Track Severe Weather on mobile